Jasper, Michigan
Current Conditions -  °F | °C
As of 4:53 AM on Thursday 29 Jan 2015 (Local Time) from KADG Reporting Station
Unknown Precip Unknown Precip  
Wind Chill: 18°   Ceiling: 6000
Heat Index: 28°   Visibility: 10mi
Dew Point: 20°   Wind: 12mph
Humidity: 72%   Direction: 180°S
Pressure: 29.89"   Gusts: NA
Location:  41.79°N, 84.04°W
Report Text: KADG 290953Z AUTO 18010KT 10SM UP OVC060 M02/M07 A2989 RMK AO2 UPB22 SLP134 P0000 T10221067
Loading
Personal Weather Stations






























Interactive Weather Map New forecast layout! Learn more

10-Day Weather Forecast

Advertisements
Track Severe Weather on mobile